createdAt,value
2019-06-26T00:02:24.975Z,24.21
2019-06-26T00:05:27.867Z,24.17
2019-06-26T00:08:29.784Z,24.15
2019-06-26T00:11:31.705Z,24.14
2019-06-26T00:14:33.727Z,24.15
2019-06-26T00:17:35.578Z,24.13
2019-06-26T00:20:38.517Z,24.09
2019-06-26T00:23:40.435Z,24.06
2019-06-26T00:26:42.442Z,24.01
2019-06-26T00:29:44.367Z,23.98
2019-06-26T00:32:46.349Z,23.92
2019-06-26T00:35:48.295Z,23.80
2019-06-26T00:38:50.542Z,23.68
2019-06-26T00:41:52.503Z,23.65
2019-06-26T00:44:54.671Z,23.67
2019-06-26T00:47:56.644Z,23.71
2019-06-26T00:50:58.591Z,23.74
2019-06-26T00:54:00.512Z,23.74
2019-06-26T00:57:02.448Z,23.78
2019-06-26T01:00:08.047Z,23.81
2019-06-26T01:03:10.267Z,23.80
2019-06-26T01:06:14.093Z,23.84
2019-06-26T01:09:16.075Z,23.92
2019-06-26T01:12:18.054Z,24.01
2019-06-26T01:15:20.076Z,24.10
2019-06-26T01:18:22.074Z,24.22
2019-06-26T01:21:24.797Z,24.32
2019-06-26T01:24:26.815Z,24.38
2019-06-26T01:27:28.863Z,24.40
2019-06-26T01:30:30.785Z,24.41
2019-06-26T01:33:32.640Z,24.44
2019-06-26T01:36:34.667Z,24.45
2019-06-26T01:39:36.524Z,24.44
2019-06-26T01:42:38.450Z,24.45
2019-06-26T01:45:40.594Z,24.43
2019-06-26T01:48:42.550Z,24.48
2019-06-26T01:51:44.472Z,24.50
2019-06-26T01:54:46.376Z,24.52
2019-06-26T01:57:48.282Z,24.49
2019-06-26T02:00:50.188Z,24.48
2019-06-26T02:03:52.755Z,24.42
2019-06-26T02:06:54.646Z,24.39
2019-06-26T02:09:56.666Z,24.38
2019-06-26T02:12:58.610Z,24.38
2019-06-26T02:16:00.619Z,24.38
2019-06-26T02:19:04.456Z,24.34
2019-06-26T02:22:06.405Z,24.27
2019-06-26T02:25:08.507Z,24.13
2019-06-26T02:28:10.525Z,23.98
2019-06-26T02:31:12.521Z,23.77
2019-06-26T02:34:14.782Z,23.43
2019-06-26T02:37:16.702Z,23.01
2019-06-26T02:40:19.152Z,22.64
2019-06-26T02:43:21.364Z,22.37
2019-06-26T02:46:23.549Z,22.28
2019-06-26T02:49:25.541Z,22.29
2019-06-26T02:52:27.426Z,22.40
2019-06-26T02:55:29.338Z,22.63
2019-06-26T02:58:31.314Z,22.83
2019-06-26T03:01:33.228Z,23.03
2019-06-26T03:04:35.167Z,23.23
2019-06-26T03:07:37.117Z,23.39
2019-06-26T03:10:39.108Z,23.46
2019-06-26T03:13:40.976Z,23.52
2019-06-26T03:16:42.982Z,23.55
2019-06-26T03:19:44.896Z,23.56
2019-06-26T03:22:46.854Z,24.06
2019-06-26T03:25:48.756Z,25.06
2019-06-26T03:28:50.744Z,26.17
2019-06-26T03:31:53.953Z,27.22
2019-06-26T03:34:55.933Z,28.21
2019-06-26T03:37:57.901Z,29.01
2019-06-26T03:40:59.949Z,29.54
2019-06-26T03:44:01.889Z,30.04
2019-06-26T03:47:04.063Z,30.59
2019-06-26T03:50:06.345Z,31.21
2019-06-26T03:53:08.340Z,32.02
2019-06-26T03:56:10.228Z,32.85
2019-06-26T03:59:12.234Z,33.47
2019-06-26T04:02:14.249Z,33.99
2019-06-26T04:05:16.180Z,34.28
2019-06-26T04:08:18.227Z,34.14
2019-06-26T04:11:20.101Z,33.98
2019-06-26T04:14:22.070Z,34.10
2019-06-26T04:17:24.040Z,34.50
2019-06-26T04:20:25.980Z,35.40
2019-06-26T04:23:28.392Z,36.31
2019-06-26T04:26:30.455Z,37.30
2019-06-26T04:29:32.392Z,37.90
2019-06-26T04:32:34.297Z,38.68
2019-06-26T04:35:36.275Z,39.52
2019-06-26T04:38:38.156Z,40.12
2019-06-26T04:41:40.095Z,40.48
2019-06-26T04:44:42.026Z,40.91
2019-06-26T04:47:44.228Z,41.70
2019-06-26T04:50:46.179Z,41.72
2019-06-26T04:53:48.183Z,42.04
2019-06-26T04:56:50.146Z,42.16
2019-06-26T04:59:52.141Z,42.38
2019-06-26T05:02:54.027Z,42.23
2019-06-26T05:05:55.973Z,42.35
2019-06-26T05:08:57.856Z,42.65
2019-06-26T05:11:59.867Z,42.79
2019-06-26T05:15:03.654Z,43.31
2019-06-26T05:18:05.610Z,43.52
2019-06-26T05:21:07.526Z,43.99
2019-06-26T05:24:09.527Z,44.25
2019-06-26T05:27:11.416Z,43.98
2019-06-26T05:30:14.076Z,44.28
2019-06-26T05:33:15.984Z,44.35
2019-06-26T05:36:17.968Z,44.69
2019-06-26T05:39:20.020Z,45.04
2019-06-26T05:42:21.927Z,45.41
2019-06-26T05:45:23.863Z,45.45
2019-06-26T05:48:26.032Z,45.84
2019-06-26T05:51:28.037Z,45.72
2019-06-26T05:54:29.991Z,46.05
2019-06-26T05:57:31.936Z,46.58
2019-06-26T06:00:33.910Z,46.23
2019-06-26T06:03:35.803Z,46.03
2019-06-26T06:06:42.163Z,46.01
2019-06-26T06:09:41.662Z,45.97
2019-06-26T06:12:43.654Z,45.82
2019-06-26T06:15:45.658Z,45.91
2019-06-26T06:18:47.616Z,45.78
2019-06-26T06:21:49.580Z,45.88
2019-06-26T06:24:51.503Z,45.87
2019-06-26T06:27:56.229Z,45.61
2019-06-26T06:30:58.216Z,46.05
2019-06-26T06:34:00.173Z,46.12
2019-06-26T06:37:02.114Z,45.74
2019-06-26T06:40:08.186Z,46.31
2019-06-26T06:43:10.060Z,45.93
2019-06-26T06:46:12.061Z,45.91
2019-06-26T06:49:14.099Z,45.72
2019-06-26T06:52:16.876Z,45.23
2019-06-26T06:55:18.943Z,45.28
2019-06-26T06:58:20.894Z,45.00
2019-06-26T07:01:22.798Z,44.91
2019-06-26T07:04:24.715Z,45.34
2019-06-26T07:07:26.659Z,45.07
2019-06-26T07:10:28.579Z,45.07
2019-06-26T07:13:30.554Z,45.02
2019-06-26T07:16:32.592Z,44.86
2019-06-26T07:19:34.579Z,44.31
2019-06-26T07:22:36.628Z,44.56
2019-06-26T07:25:38.556Z,44.69
2019-06-26T07:28:40.532Z,44.97
2019-06-26T07:31:42.456Z,45.19
2019-06-26T07:34:44.513Z,44.85
2019-06-26T07:37:46.462Z,44.93
2019-06-26T07:40:48.464Z,44.87
2019-06-26T07:43:50.337Z,45.45
2019-06-26T07:46:52.321Z,45.70
2019-06-26T07:49:54.404Z,45.90
2019-06-26T07:52:56.315Z,45.58
2019-06-26T07:55:58.265Z,45.86
2019-06-26T07:59:00.196Z,46.25
2019-06-26T08:02:03.476Z,46.33
2019-06-26T08:05:06.791Z,46.46
2019-06-26T08:08:08.744Z,46.85
2019-06-26T08:11:10.622Z,46.99
2019-06-26T08:14:12.591Z,46.70
2019-06-26T08:17:14.589Z,46.18
2019-06-26T08:20:17.063Z,45.80
2019-06-26T08:23:19.076Z,45.38
2019-06-26T08:26:20.982Z,45.51
2019-06-26T08:29:23.951Z,44.93
2019-06-26T08:32:26.167Z,45.27
2019-06-26T08:35:28.511Z,45.72
2019-06-26T08:38:30.506Z,45.96
2019-06-26T08:41:32.430Z,46.08
2019-06-26T08:44:34.398Z,45.60
2019-06-26T08:47:36.305Z,45.16
2019-06-26T08:50:38.350Z,45.46
2019-06-26T08:53:40.266Z,45.70
2019-06-26T08:56:42.221Z,46.00
2019-06-26T08:59:44.155Z,45.95
2019-06-26T09:02:46.697Z,46.11
2019-06-26T09:05:48.906Z,46.11
2019-06-26T09:08:50.910Z,46.31
2019-06-26T09:11:52.822Z,46.17
2019-06-26T09:14:54.829Z,45.85
2019-06-26T09:17:56.779Z,45.60
2019-06-26T09:20:58.766Z,45.10
2019-06-26T09:24:00.701Z,44.36
2019-06-26T09:27:02.710Z,44.36
2019-06-26T09:30:06.195Z,44.33
2019-06-26T09:33:08.303Z,44.33
2019-06-26T09:36:10.221Z,44.15
2019-06-26T09:39:12.194Z,43.49
2019-06-26T09:42:14.218Z,42.79
2019-06-26T09:45:16.397Z,42.66
2019-06-26T09:48:18.380Z,42.51
2019-06-26T09:51:20.535Z,42.17
2019-06-26T09:54:22.508Z,41.49
2019-06-26T09:57:24.479Z,41.13
2019-06-26T10:00:27.014Z,40.68
2019-06-26T10:03:29.099Z,40.52
2019-06-26T10:06:31.047Z,40.58
2019-06-26T10:09:33.096Z,40.32
2019-06-26T10:12:35.178Z,40.39
2019-06-26T10:15:37.093Z,40.42
2019-06-26T10:18:39.033Z,40.24
2019-06-26T10:21:40.958Z,40.17
2019-06-26T10:24:42.911Z,40.34
2019-06-26T10:27:44.954Z,40.28
2019-06-26T10:30:48.477Z,40.13
2019-06-26T10:33:50.386Z,40.08
2019-06-26T10:36:52.657Z,39.88
2019-06-26T10:39:56.025Z,39.84
2019-06-26T10:42:59.988Z,39.98
2019-06-26T10:46:02.704Z,40.05
2019-06-26T10:49:04.681Z,40.13
2019-06-26T10:52:06.740Z,40.17
2019-06-26T10:55:10.557Z,40.03
2019-06-26T10:58:12.440Z,40.05
2019-06-26T11:01:14.432Z,40.18
2019-06-26T11:04:16.349Z,40.17
2019-06-26T11:07:18.323Z,39.98
2019-06-26T11:10:20.630Z,39.96
2019-06-26T11:13:22.640Z,39.79
2019-06-26T11:16:25.915Z,39.77
2019-06-26T11:19:42.614Z,39.73
2019-06-26T11:22:33.179Z,39.64
2019-06-26T11:25:35.176Z,39.71
2019-06-26T11:28:37.182Z,39.67
2019-06-26T11:31:39.145Z,39.65
2019-06-26T11:34:41.061Z,39.58
2019-06-26T11:37:43.022Z,39.57
2019-06-26T11:40:45.001Z,39.52
2019-06-26T11:43:47.225Z,39.61
2019-06-26T11:46:49.104Z,39.45
2019-06-26T11:49:59.881Z,39.54
2019-06-26T11:52:55.269Z,39.64
2019-06-26T11:55:57.180Z,39.51
2019-06-26T11:58:59.262Z,39.56
2019-06-26T12:02:01.260Z,39.62
2019-06-26T12:05:05.425Z,39.51
2019-06-26T12:08:08.450Z,39.53
2019-06-26T12:11:10.377Z,39.50
2019-06-26T12:14:12.338Z,39.50
2019-06-26T12:17:14.866Z,39.50
2019-06-26T12:20:19.215Z,39.43
2019-06-26T12:23:20.811Z,39.54
2019-06-26T12:26:22.700Z,39.51
2019-06-26T12:29:24.667Z,39.60
2019-06-26T12:32:27.535Z,39.68
2019-06-26T12:35:29.539Z,39.64
2019-06-26T12:38:31.462Z,39.55
2019-06-26T12:41:33.389Z,39.47
2019-06-26T12:44:35.313Z,39.38
2019-06-26T12:47:38.358Z,39.32
2019-06-26T12:50:40.336Z,39.36
2019-06-26T12:53:42.873Z,39.50
2019-06-26T12:56:44.880Z,39.49
2019-06-26T12:59:56.858Z,39.44
2019-06-26T13:02:50.755Z,39.34
2019-06-26T13:05:52.681Z,39.22
2019-06-26T13:08:54.668Z,39.21
2019-06-26T13:11:56.691Z,39.16
2019-06-26T13:14:58.594Z,39.14
2019-06-26T13:18:01.553Z,39.16
2019-06-26T13:21:05.200Z,39.09
2019-06-26T13:24:07.534Z,39.22
2019-06-26T13:27:09.580Z,39.25
2019-06-26T13:30:13.900Z,39.28
2019-06-26T13:33:15.814Z,39.00
2019-06-26T13:36:17.776Z,39.05
2019-06-26T13:39:19.739Z,39.20
2019-06-26T13:42:21.708Z,39.07
2019-06-26T13:45:24.135Z,38.90
2019-06-26T13:48:26.138Z,39.00
2019-06-26T13:51:28.055Z,39.19
2019-06-26T13:54:30.647Z,39.23
2019-06-26T13:57:32.755Z,39.31
2019-06-26T14:00:34.816Z,39.34
2019-06-26T14:03:36.789Z,39.24
2019-06-26T14:06:38.675Z,39.32
2019-06-26T14:09:40.639Z,39.14
2019-06-26T14:12:43.184Z,39.07
2019-06-26T14:15:45.678Z,39.17
2019-06-26T14:18:48.083Z,39.17
2019-06-26T14:21:49.976Z,39.23
2019-06-26T14:24:54.233Z,39.22
2019-06-26T14:27:55.859Z,39.19
2019-06-26T14:30:57.803Z,39.28
2019-06-26T14:33:59.783Z,39.25
2019-06-26T14:37:01.690Z,39.21
2019-06-26T14:40:08.988Z,39.14
2019-06-26T14:43:10.958Z,39.06
2019-06-26T14:46:12.935Z,38.91
2019-06-26T14:49:16.147Z,38.92
2019-06-26T14:52:18.119Z,38.81
2019-06-26T14:55:21.805Z,38.65
2019-06-26T14:58:23.878Z,38.59
2019-06-26T15:01:25.817Z,38.45
2019-06-26T15:04:27.839Z,38.40
2019-06-26T15:07:29.763Z,38.56
2019-06-26T15:10:33.586Z,38.70
2019-06-26T15:13:35.505Z,38.79
2019-06-26T15:16:37.521Z,38.89
2019-06-26T15:19:39.460Z,38.95
2019-06-26T15:22:41.505Z,38.86
2019-06-26T15:25:43.506Z,38.81
2019-06-26T15:28:45.495Z,38.68
2019-06-26T15:31:47.464Z,38.61
2019-06-26T15:34:49.432Z,38.59
2019-06-26T15:37:51.338Z,38.55
2019-06-26T15:40:53.283Z,38.36
2019-06-26T15:43:55.313Z,38.37
2019-06-26T15:46:57.255Z,38.41
2019-06-26T15:49:59.883Z,38.57
2019-06-26T15:53:01.803Z,38.65
2019-06-26T15:56:03.982Z,38.58
2019-06-26T15:59:05.932Z,38.45
2019-06-26T16:02:07.932Z,38.27
2019-06-26T16:05:09.999Z,38.07
2019-06-26T16:08:11.973Z,38.00
2019-06-26T16:11:15.143Z,38.01
2019-06-26T16:14:17.129Z,37.95
2019-06-26T16:17:39.258Z,37.77
2019-06-26T16:20:42.427Z,37.73
2019-06-26T16:23:44.367Z,37.71
2019-06-26T16:26:47.094Z,37.74
2019-06-26T16:29:49.751Z,37.81
2019-06-26T16:32:56.686Z,37.83
2019-06-26T16:35:57.656Z,37.84
2019-06-26T16:39:01.043Z,37.75
2019-06-26T16:42:04.826Z,37.67
2019-06-26T16:45:10.403Z,37.53
2019-06-26T16:48:12.474Z,37.44
2019-06-26T16:51:14.384Z,37.46
2019-06-26T16:54:16.430Z,37.41
2019-06-26T16:57:18.785Z,37.33
2019-06-26T17:00:20.872Z,37.27
2019-06-26T17:03:22.902Z,37.21
2019-06-26T17:06:26.733Z,37.18
2019-06-26T17:09:28.908Z,37.12
2019-06-26T17:12:30.972Z,37.09
2019-06-26T17:15:32.855Z,36.95
2019-06-26T17:18:34.863Z,37.01
2019-06-26T17:21:36.817Z,36.97
2019-06-26T17:24:38.796Z,36.85
2019-06-26T17:27:40.840Z,36.72
2019-06-26T17:30:44.501Z,36.61
2019-06-26T17:33:46.795Z,36.55
2019-06-26T17:36:48.799Z,36.50
2019-06-26T17:39:50.812Z,36.41
2019-06-26T17:42:53.967Z,36.39
2019-06-26T17:45:55.935Z,36.33
2019-06-26T17:48:59.002Z,36.24
2019-06-26T17:52:01.980Z,36.09
2019-06-26T17:55:06.413Z,35.91
2019-06-26T17:58:10.189Z,35.73
2019-06-26T18:01:14.728Z,35.58
2019-06-26T18:04:16.704Z,35.45
2019-06-26T18:07:18.659Z,35.31
2019-06-26T18:10:20.639Z,35.13
2019-06-26T18:13:24.147Z,35.04
2019-06-26T18:16:26.154Z,34.90
2019-06-26T18:19:30.734Z,34.69
2019-06-26T18:22:32.675Z,34.47
2019-06-26T18:25:34.688Z,34.22
2019-06-26T18:28:36.642Z,34.03
2019-06-26T18:31:38.675Z,33.85
2019-06-26T18:34:40.646Z,33.63
2019-06-26T18:37:42.657Z,33.43
2019-06-26T18:40:46.276Z,33.18
2019-06-26T18:43:48.238Z,32.97
2019-06-26T18:46:50.818Z,32.80
2019-06-26T18:49:52.825Z,32.59
2019-06-26T18:52:54.797Z,32.45
2019-06-26T18:55:58.128Z,32.32
2019-06-26T18:59:01.700Z,32.14
2019-06-26T19:02:05.523Z,32.04
2019-06-26T19:05:10.389Z,31.96
2019-06-26T19:08:12.555Z,31.85
2019-06-26T19:11:14.561Z,31.75
2019-06-26T19:14:16.583Z,31.62
2019-06-26T19:17:20.432Z,31.48
2019-06-26T19:20:22.511Z,31.32
2019-06-26T19:23:24.529Z,31.18
2019-06-26T19:26:27.565Z,31.08
2019-06-26T19:29:29.670Z,31.03
2019-06-26T19:32:31.666Z,30.97
2019-06-26T19:35:33.726Z,30.93
2019-06-26T19:38:35.711Z,30.80
2019-06-26T19:41:37.787Z,30.73
2019-06-26T19:44:39.916Z,30.61
2019-06-26T19:47:42.245Z,30.54
2019-06-26T19:50:44.259Z,30.40
2019-06-26T19:53:47.793Z,30.24
2019-06-26T19:56:50.167Z,30.11
2019-06-26T19:59:52.381Z,30.02
2019-06-26T20:02:54.389Z,29.95
2019-06-26T20:05:56.450Z,29.91
2019-06-26T20:08:58.416Z,29.80
2019-06-26T20:12:00.772Z,29.76
2019-06-26T20:15:04.668Z,29.65
2019-06-26T20:18:06.666Z,29.55
2019-06-26T20:21:08.668Z,29.52
2019-06-26T20:24:14.226Z,29.50
2019-06-26T20:27:17.109Z,29.47
2019-06-26T20:30:22.750Z,29.42
2019-06-26T20:33:26.598Z,29.33
2019-06-26T20:36:28.561Z,29.17
2019-06-26T20:39:31.022Z,29.05
2019-06-26T20:42:32.938Z,28.99
2019-06-26T20:45:34.952Z,28.93
2019-06-26T20:48:36.880Z,28.89
2019-06-26T20:51:40.052Z,28.75
2019-06-26T20:54:56.811Z,28.65
2019-06-26T20:57:48.881Z,28.57
2019-06-26T21:00:51.056Z,28.53
2019-06-26T21:03:54.921Z,28.57
2019-06-26T21:06:56.801Z,28.58
2019-06-26T21:09:58.811Z,28.59
2019-06-26T21:13:03.316Z,28.63
2019-06-26T21:16:07.522Z,28.63
2019-06-26T21:19:09.431Z,28.65
2019-06-26T21:22:12.779Z,28.72
2019-06-26T21:25:18.956Z,28.77
2019-06-26T21:28:18.552Z,28.81
2019-06-26T21:31:20.481Z,28.83
2019-06-26T21:34:22.488Z,28.85
2019-06-26T21:37:24.500Z,28.86
2019-06-26T21:40:26.380Z,28.84
2019-06-26T21:43:28.412Z,28.81
2019-06-26T21:46:30.376Z,28.79
2019-06-26T21:49:32.376Z,28.76
2019-06-26T21:52:34.380Z,28.75
2019-06-26T21:55:36.565Z,28.76
2019-06-26T21:58:56.656Z,28.72
2019-06-26T22:02:17.519Z,28.60
2019-06-26T22:05:22.750Z,28.54
2019-06-26T22:08:42.911Z,28.44
2019-06-26T22:11:45.083Z,28.37
2019-06-26T22:14:47.099Z,28.33
2019-06-26T22:17:48.997Z,28.29
2019-06-26T22:20:50.986Z,28.30
2019-06-26T22:23:53.170Z,28.29
2019-06-26T22:26:56.170Z,28.25
2019-06-26T22:29:58.189Z,28.25
2019-06-26T22:33:00.129Z,28.22
2019-06-26T22:36:02.098Z,28.18
2019-06-26T22:39:05.131Z,28.15
2019-06-26T22:42:07.853Z,28.11
2019-06-26T22:45:10.165Z,28.08
2019-06-26T22:48:12.052Z,28.01
2019-06-26T22:51:14.094Z,27.97
2019-06-26T22:54:19.570Z,28.01
2019-06-26T22:57:19.992Z,28.01
2019-06-26T23:00:22.231Z,28.01
2019-06-26T23:03:24.280Z,27.99
2019-06-26T23:06:26.236Z,27.98
2019-06-26T23:09:28.253Z,27.98
2019-06-26T23:12:30.204Z,27.98
2019-06-26T23:15:32.216Z,27.97
2019-06-26T23:18:34.125Z,27.92
2019-06-26T23:21:36.086Z,27.87
2019-06-26T23:24:37.985Z,27.87
2019-06-26T23:27:39.996Z,27.85
2019-06-26T23:30:41.976Z,27.83
2019-06-26T23:33:44.019Z,27.73
2019-06-26T23:36:45.972Z,27.65
2019-06-26T23:39:47.944Z,27.58
2019-06-26T23:42:49.858Z,27.53
2019-06-26T23:45:52.267Z,27.51
2019-06-26T23:48:54.200Z,27.45
2019-06-26T23:51:56.152Z,27.35
2019-06-26T23:54:58.127Z,27.28
2019-06-26T23:58:00.104Z,27.16
